Weather at Oxford (Kidlington) Airport

Public forecast

Using degrees Celsius for public forecast. Weather courtesy of forecast.io.

Current aviation weather report (METAR) for Oxford (Kidlington) Airport

Report is more than 6 hours old.

2022/11/14 15:20 (retrieved 2 years ago)

EGTK 141520Z 13004KT 7000 BKN019 13/13 Q1005

Closest aviation forecast (TAF) to Oxford (Kidlington) Airport

Forecast is more than 12 hours old.

Closest forecast is RAF Brize Norton, 11.1 nm (20.5 km) WSW.

2023/02/22 21:57 (retrieved 1 year ago)

TAF EGVN 221949Z 2221/2321 34006KT 9999 SCT025 TEMPO 2221/2312 BKN020 PROB40 TEMPO 2223/2307 4000 -RADZ BKN010